createdAt,value
2023-02-22T00:02:13.222Z,6.30
2023-02-22T00:06:17.748Z,6.73
2023-02-22T00:10:20.983Z,7.40
2023-02-22T00:14:27.443Z,7.77
2023-02-22T00:18:30.618Z,7.47
2023-02-22T00:22:33.560Z,7.27
2023-02-22T00:26:36.536Z,6.87
2023-02-22T00:30:43.538Z,6.73
2023-02-22T00:34:46.294Z,6.73
2023-02-22T00:38:52.554Z,7.13
2023-02-22T00:42:55.454Z,7.47
2023-02-22T00:46:59.523Z,9.07
2023-02-22T00:51:02.149Z,8.83
2023-02-22T00:55:05.988Z,8.63
2023-02-22T00:59:08.655Z,7.57
2023-02-22T01:03:14.607Z,9.33
2023-02-22T01:07:17.764Z,8.00
2023-02-22T01:11:22.321Z,8.30
2023-02-22T01:15:30.682Z,8.37
2023-02-22T01:19:34.821Z,7.23
2023-02-22T01:23:37.563Z,6.30
2023-02-22T01:27:40.655Z,5.90
2023-02-22T01:31:44.054Z,6.60
2023-02-22T01:35:50.196Z,5.80
2023-02-22T01:39:52.918Z,5.47
2023-02-22T01:43:55.618Z,5.33
2023-02-22T01:48:01.133Z,6.80
2023-02-22T01:52:15.321Z,7.40
2023-02-22T01:56:19.335Z,10.25
2023-02-22T02:00:24.320Z,10.67
2023-02-22T02:04:27.798Z,11.13
2023-02-22T02:08:37.112Z,17.67
2023-02-22T02:12:41.756Z,8.90
2023-02-22T02:16:46.519Z,9.20
2023-02-22T02:21:00.821Z,8.53
2023-02-22T02:25:31.872Z,9.63
2023-02-22T02:30:23.391Z,8.67
2023-02-22T02:34:32.921Z,9.90
2023-02-22T02:38:40.808Z,9.13
2023-02-22T02:42:46.091Z,9.43
2023-02-22T02:46:52.383Z,11.20
2023-02-22T02:50:58.024Z,9.13
2023-02-22T02:55:01.144Z,13.10
2023-02-22T02:59:03.877Z,11.07
2023-02-22T03:03:21.847Z,9.20
2023-02-22T03:07:38.408Z,9.20
2023-02-22T03:11:48.478Z,8.50
2023-02-22T03:15:54.394Z,8.27
2023-02-22T03:20:01.802Z,7.70
2023-02-22T03:24:10.714Z,7.83
2023-02-22T03:28:16.862Z,8.53
2023-02-22T03:32:23.038Z,7.90
2023-02-22T03:36:27.970Z,8.53
2023-02-22T03:40:36.160Z,7.67
2023-02-22T03:44:40.503Z,7.00
2023-02-22T03:48:47.830Z,7.10
2023-02-22T03:52:50.624Z,7.40
2023-02-22T03:56:57.415Z,7.77
2023-02-22T04:01:00.332Z,7.60
2023-02-22T04:05:03.269Z,7.40
2023-02-22T04:09:08.618Z,7.60
2023-02-22T04:13:14.602Z,8.80
2023-02-22T04:17:17.300Z,9.40
2023-02-22T04:21:20.482Z,8.40
2023-02-22T04:25:24.137Z,7.40
2023-02-22T04:29:28.441Z,10.27
2023-02-22T04:33:31.182Z,7.80
2023-02-22T04:37:34.713Z,6.93
2023-02-22T04:41:37.481Z,6.80
2023-02-22T04:45:41.741Z,6.33
2023-02-22T04:49:45.617Z,6.40
2023-02-22T04:53:48.499Z,6.30
2023-02-22T04:57:51.224Z,8.73
2023-02-22T05:01:55.356Z,6.43
2023-02-22T05:06:01.244Z,5.83
2023-02-22T05:10:03.932Z,6.57
2023-02-22T05:14:06.758Z,7.93
2023-02-22T05:18:10.841Z,10.53
2023-02-22T05:22:15.072Z,12.03
2023-02-22T05:26:18.970Z,20.77
2023-02-22T05:30:24.343Z,37.70
2023-02-22T05:34:28.516Z,46.43
2023-02-22T05:38:31.213Z,36.27
2023-02-22T05:42:33.872Z,19.40
2023-02-22T05:46:36.537Z,57.33
2023-02-22T05:50:40.634Z,57.33
2023-02-22T05:54:43.275Z,16.67
2023-02-22T05:58:46.182Z,33.17
2023-02-22T06:02:48.888Z,64.30
2023-02-22T06:06:53.777Z,32.17
2023-02-22T06:10:56.575Z,27.53
2023-02-22T06:14:59.520Z,16.87
2023-02-22T06:19:02.579Z,38.93
2023-02-22T06:23:06.679Z,13.33
2023-02-22T06:27:09.359Z,14.30
2023-02-22T06:31:12.591Z,28.93
2023-02-22T06:35:15.906Z,13.80
2023-02-22T06:39:19.941Z,16.47
2023-02-22T06:43:23.055Z,18.77
2023-02-22T06:47:25.862Z,13.53
2023-02-22T06:51:29.274Z,7.93
2023-02-22T06:55:35.151Z,8.27
2023-02-22T06:59:38.128Z,8.20
2023-02-22T07:03:42.297Z,9.90
2023-02-22T07:07:45.076Z,8.00
2023-02-22T07:11:49.267Z,7.70
2023-02-22T07:15:52.035Z,8.03
2023-02-22T07:19:54.721Z,6.40
2023-02-22T07:23:58.972Z,5.33
2023-02-22T07:28:03.091Z,5.67
2023-02-22T07:32:06.169Z,5.23
2023-02-22T07:36:09.523Z,5.70
2023-02-22T07:40:13.015Z,5.50
2023-02-22T07:44:17.602Z,6.03
2023-02-22T07:48:22.650Z,6.43
2023-02-22T07:52:25.391Z,6.90
2023-02-22T07:56:28.348Z,8.53
2023-02-22T08:00:33.934Z,8.07
2023-02-22T08:04:36.734Z,8.33
2023-02-22T08:08:40.082Z,7.80
2023-02-22T08:12:45.964Z,13.87
2023-02-22T08:16:50.443Z,8.67
2023-02-22T08:20:54.744Z,8.47
2023-02-22T08:24:59.368Z,7.20
2023-02-22T08:29:02.281Z,8.17
2023-02-22T08:33:07.286Z,6.17
2023-02-22T08:37:10.794Z,7.27
2023-02-22T08:41:13.534Z,6.90
2023-02-22T08:45:16.877Z,6.20
2023-02-22T08:49:21.537Z,5.63
2023-02-22T08:53:24.246Z,7.73
2023-02-22T08:57:27.367Z,8.43
2023-02-22T09:01:33.467Z,7.27
2023-02-22T09:05:38.378Z,10.47
2023-02-22T09:09:43.468Z,7.10
2023-02-22T09:13:46.196Z,7.67
2023-02-22T09:17:48.954Z,8.30
2023-02-22T09:21:55.308Z,9.10
2023-02-22T09:26:00.048Z,8.07
2023-02-22T09:30:03.336Z,8.47
2023-02-22T09:34:13.685Z,8.23
2023-02-22T09:38:20.487Z,8.93
2023-02-22T09:42:29.258Z,9.00
2023-02-22T09:46:34.913Z,8.67
2023-02-22T09:50:42.208Z,9.10
2023-02-22T09:54:51.808Z,9.57
2023-02-22T09:58:57.058Z,9.47
2023-02-22T10:03:09.660Z,9.73
2023-02-22T10:07:18.697Z,9.97
2023-02-22T10:11:33.745Z,9.13
2023-02-22T10:15:43.904Z,9.67
2023-02-22T10:19:54.894Z,8.07
2023-02-22T10:24:05.496Z,7.90
2023-02-22T10:28:14.784Z,10.37
2023-02-22T10:32:21.742Z,8.70
2023-02-22T10:36:25.154Z,9.10
2023-02-22T10:40:32.967Z,8.87
2023-02-22T10:44:38.494Z,8.17
2023-02-22T10:48:43.327Z,9.63
2023-02-22T10:52:46.037Z,8.50
2023-02-22T10:56:50.418Z,7.47
2023-02-22T11:00:54.836Z,9.20
2023-02-22T11:04:59.170Z,9.13
2023-02-22T11:09:11.418Z,8.50
2023-02-22T11:13:25.853Z,7.50
2023-02-22T11:17:32.983Z,7.13
2023-02-22T11:21:35.950Z,7.37
2023-02-22T11:25:42.279Z,8.03
2023-02-22T11:29:50.829Z,8.60
2023-02-22T11:38:12.311Z,7.83
2023-02-22T11:42:23.114Z,9.00
2023-02-22T11:46:29.028Z,7.57
2023-02-22T11:50:35.495Z,8.50
2023-02-22T11:54:46.148Z,8.00
2023-02-22T11:58:51.704Z,8.87
2023-02-22T12:03:20.857Z,9.53
2023-02-22T12:07:52.279Z,7.90
2023-02-22T12:12:01.698Z,7.50
2023-02-22T12:16:10.867Z,7.43
2023-02-22T12:20:21.660Z,8.70
2023-02-22T12:24:28.713Z,7.90
2023-02-22T12:28:35.679Z,7.67
2023-02-22T12:32:42.237Z,8.97
2023-02-22T12:36:47.745Z,8.67
2023-02-22T12:40:58.043Z,8.20
2023-02-22T12:45:07.860Z,8.03
2023-02-22T12:49:17.731Z,8.07
2023-02-22T12:53:26.605Z,7.67
2023-02-22T12:57:37.890Z,6.97
2023-02-22T13:01:42.392Z,9.87
2023-02-22T13:05:54.096Z,9.57
2023-02-22T13:10:23.340Z,6.93
2023-02-22T13:14:39.974Z,6.50
2023-02-22T13:18:48.798Z,6.97
2023-02-22T13:22:55.924Z,7.07
2023-02-22T13:27:04.151Z,6.40
2023-02-22T13:31:19.849Z,6.37
2023-02-22T13:35:35.339Z,7.03
2023-02-22T13:40:11.281Z,7.27
2023-02-22T13:44:55.844Z,7.80
2023-02-22T13:49:22.422Z,6.67
2023-02-22T13:53:28.573Z,7.30
2023-02-22T13:57:35.223Z,6.17
2023-02-22T14:01:44.068Z,5.77
2023-02-22T14:05:53.225Z,7.07
2023-02-22T14:09:57.475Z,6.43
2023-02-22T14:14:27.655Z,9.90
2023-02-22T14:18:32.051Z,5.43
2023-02-22T14:22:48.164Z,5.97
2023-02-22T14:26:57.290Z,5.30
2023-02-22T14:31:17.355Z,5.20
2023-02-22T14:35:31.550Z,4.50
2023-02-22T14:39:45.015Z,4.70
2023-02-22T14:43:48.052Z,4.43
2023-02-22T14:48:01.146Z,4.83
2023-02-22T14:52:08.293Z,5.27
2023-02-22T14:56:20.988Z,4.30
2023-02-22T15:00:31.106Z,4.10
2023-02-22T15:04:34.026Z,3.70
2023-02-22T15:08:41.532Z,4.40
2023-02-22T15:13:10.765Z,5.03
2023-02-22T15:17:18.062Z,4.33
2023-02-22T15:21:24.335Z,4.07
2023-02-22T15:25:30.694Z,4.70
2023-02-22T15:29:37.668Z,3.70
2023-02-22T15:33:41.359Z,5.60
2023-02-22T15:37:44.968Z,5.70
2023-02-22T15:41:48.392Z,4.83
2023-02-22T15:45:53.466Z,5.77
2023-02-22T15:50:16.179Z,6.40
2023-02-22T15:54:26.998Z,8.20
2023-02-22T15:58:30.414Z,5.17
2023-02-22T16:02:39.106Z,8.53
2023-02-22T16:06:43.378Z,7.93
2023-02-22T16:10:53.301Z,8.93
2023-02-22T16:14:56.742Z,5.03
2023-02-22T16:19:36.084Z,4.43
2023-02-22T16:23:48.148Z,3.57
2023-02-22T16:27:52.729Z,4.27
2023-02-22T16:31:56.596Z,3.97
2023-02-22T16:35:59.752Z,6.40
2023-02-22T16:40:09.358Z,15.23
2023-02-22T16:44:13.551Z,13.37
2023-02-22T16:48:18.843Z,9.43
2023-02-22T16:52:21.776Z,17.57
2023-02-22T16:56:30.829Z,20.07
2023-02-22T17:00:34.626Z,18.23
2023-02-22T17:04:37.564Z,9.60
2023-02-22T17:08:41.049Z,8.77
2023-02-22T17:12:47.610Z,6.97
2023-02-22T17:16:50.423Z,11.43
2023-02-22T17:20:54.989Z,9.37
2023-02-22T17:24:57.877Z,8.83
2023-02-22T17:29:01.927Z,9.07
2023-02-22T17:33:06.413Z,9.37
2023-02-22T17:37:09.355Z,7.67
2023-02-22T17:41:12.067Z,13.97
2023-02-22T17:45:16.458Z,21.97
2023-02-22T17:49:19.519Z,17.17
2023-02-22T17:53:24.497Z,9.50
2023-02-22T17:57:27.598Z,13.00
2023-02-22T18:01:35.006Z,10.03
2023-02-22T18:05:40.756Z,46.60
2023-02-22T18:09:43.807Z,28.40
2023-02-22T18:13:52.423Z,23.57
2023-02-22T18:17:57.886Z,17.33
2023-02-22T18:22:03.015Z,21.13
2023-02-22T18:26:12.077Z,21.07
2023-02-22T18:30:15.062Z,20.77
2023-02-22T18:34:19.341Z,17.00
2023-02-22T18:38:25.002Z,10.27
2023-02-22T18:42:28.735Z,9.00
2023-02-22T18:46:31.490Z,9.60
2023-02-22T18:50:35.629Z,9.80
2023-02-22T18:54:39.933Z,10.37
2023-02-22T18:58:43.927Z,14.43
2023-02-22T19:02:47.211Z,14.33
2023-02-22T19:06:51.514Z,13.53
2023-02-22T19:10:54.259Z,10.87
2023-02-22T19:14:58.161Z,10.40
2023-02-22T19:19:00.867Z,12.80
2023-02-22T19:23:07.905Z,13.90
2023-02-22T19:27:11.072Z,16.43
2023-02-22T19:31:15.641Z,11.07
2023-02-22T19:35:26.173Z,14.27
2023-02-22T19:39:30.443Z,14.93
2023-02-22T19:43:33.318Z,16.13
2023-02-22T19:47:36.435Z,20.83
2023-02-22T19:51:39.252Z,16.77
2023-02-22T19:55:44.030Z,12.60
2023-02-22T19:59:46.814Z,12.97
2023-02-22T20:03:52.654Z,14.20
2023-02-22T20:07:55.387Z,54.07
2023-02-22T20:11:59.985Z,24.17
2023-02-22T20:16:02.702Z,19.30
2023-02-22T20:20:07.365Z,15.63
2023-02-22T20:24:14.961Z,10.40
2023-02-22T20:28:18.984Z,14.93
2023-02-22T20:32:24.540Z,16.40
2023-02-22T20:36:29.164Z,16.20
2023-02-22T20:40:31.871Z,15.03
2023-02-22T20:44:36.384Z,14.67
2023-02-22T20:48:39.381Z,13.87
2023-02-22T20:52:42.180Z,12.37
2023-02-22T20:56:46.746Z,11.43
2023-02-22T21:00:51.064Z,11.43
2023-02-22T21:04:54.120Z,10.47
2023-02-22T21:08:58.282Z,11.87
2023-02-22T21:13:02.319Z,11.23
2023-02-22T21:17:08.006Z,12.53
2023-02-22T21:21:12.601Z,13.67
2023-02-22T21:25:16.613Z,10.80
2023-02-22T21:29:19.939Z,11.97
2023-02-22T21:33:24.345Z,12.83
2023-02-22T21:37:27.829Z,10.67
2023-02-22T21:41:32.204Z,11.67
2023-02-22T21:45:36.404Z,11.63
2023-02-22T21:49:40.534Z,11.17
2023-02-22T21:53:45.953Z,12.20
2023-02-22T21:57:48.933Z,11.10
2023-02-22T22:01:55.456Z,11.07
2023-02-22T22:06:00.260Z,12.27
2023-02-22T22:10:05.307Z,13.03
2023-02-22T22:14:07.951Z,12.50
2023-02-22T22:18:11.777Z,11.87
2023-02-22T22:22:16.255Z,11.97
2023-02-22T22:26:20.383Z,10.90
2023-02-22T22:30:23.543Z,10.90
2023-02-22T22:34:29.403Z,9.97
2023-02-22T22:38:35.182Z,10.50
2023-02-22T22:42:37.863Z,10.13
2023-02-22T22:46:40.926Z,12.50
2023-02-22T22:50:46.383Z,13.00
2023-02-22T22:54:50.806Z,11.73
2023-02-22T22:58:54.996Z,10.73
2023-02-22T23:02:59.409Z,11.03
2023-02-22T23:07:02.564Z,10.60
2023-02-22T23:11:09.538Z,10.73
2023-02-22T23:15:13.769Z,10.83
2023-02-22T23:19:20.560Z,11.70
2023-02-22T23:23:27.530Z,12.80
2023-02-22T23:27:31.975Z,11.50
2023-02-22T23:31:39.407Z,11.43
2023-02-22T23:35:48.629Z,12.97
2023-02-22T23:39:52.508Z,12.97
2023-02-22T23:43:56.577Z,12.03
2023-02-22T23:48:01.674Z,12.90
2023-02-22T23:52:04.619Z,11.53
2023-02-22T23:56:10.050Z,11.20
